This is the latest recevied weather packets stored in our database for station/object XE3JAR. If no packets are shown the sender has not sent any weather packets the latest 10 day(s).
| Time | Temp. | Humidity | Pressure | Rain* | Wind** | Luminosity | Snow |
|---|---|---|---|---|---|---|---|
| 1778087373 | 42.78° C | 53% | 1014.2 hPa | - | - | - | - |
| 1778087072 | 42.78° C | 54% | 1014.6 hPa | - | - | - | - |
| 1778086778 | 42.78° C | 52% | 1014.6 hPa | - | - | - | - |
| 1778085274 | 42.78° C | 52% | 1014.6 hPa | - | - | - | - |
| 1778084947 | 42.22° C | 54% | 1014.6 hPa | - | - | - | - |
| 1778084030 | 42.22° C | 54% | 1014.9 hPa | - | - | - | - |
| 1778082816 | 40° C | 57% | 1014.9 hPa | - | - | - | - |
| 1778080104 | 37.22° C | 66% | 1014.9 hPa | - | - | - | - |
| 1778077672 | 33.89° C | 72% | 1014.9 hPa | - | - | - | - |
| 1778072381 | 28.89° C | 91% | 1015.2 hPa | - | - | - | - |
| 1778071465 | 27.78° C | 94% | 1014.9 hPa | - | - | - | - |
| 1778070858 | 27.78° C | 97% | 1014.9 hPa | - | - | - | - |
| 1778069335 | 27.22° C | 99% | 1014.9 hPa | - | - | - | - |
| 1778066649 | 27.22° C | 99% | 1014.6 hPa | - | - | - | - |
| 1778066367 | 27.22° C | 99% | 1014.6 hPa | - | - | - | - |
| 1778056133 | 28.89° C | 93% | 1013.6 hPa | - | - | - | - |
| 1778053997 | 28.89° C | 94% | 1013.9 hPa | - | - | - | - |
| 1778050168 | 28.89° C | 94% | 1014.6 hPa | - | - | - | - |
| 1778049867 | 28.89° C | 94% | 1014.2 hPa | - | - | - | - |
| 1778049253 | 28.89° C | 93% | 1014.2 hPa | - | - | - | - |
| 1778048965 | 28.89° C | 92% | 1014.2 hPa | - | - | - | - |
| 1778048641 | 28.89° C | 92% | 1014.6 hPa | - | - | - | - |
| 1778047735 | 28.89° C | 92% | 1014.2 hPa | - | - | - | - |
| 1778045600 | 30° C | 91% | 1014.2 hPa | - | - | - | - |
| 1778041349 | 31.11° C | 89% | 1014.2 hPa | - | - | - | - |
* Rain since midnight (hover to see other rain measurements)
** Current wind speed in m/s (hover to see current wind gust speed)